Airfield :
LOGIN :

Register | Disclaimer

   EN    FR    IT 

 










Legend :    VFR   Marginal VFR   IFR   Intensive IFR   Very Intensive IFR
Visi :
Ceiling :
>= 8 km
>= 3000ft
5 to 8 km
1000 to 3000 ft
1500m to 5 km
500 to 1000 ft
800 to 1500m
200 to 500 ft
< 800m
< 200 ft
Symbols :   Thunderstorms  Fog  Heavy snow  Heavy precipitations  Wind > 20 kt
SIGMETs :     Misc.  Thunderstorms  Icing  Turbulence  Mountain Waves  Volcanic Ashes






- Airport Elevation : 52 ft
- IATA code : IOM


EGNS - Isle of Man

CURRENT METAR :
  • 241050Z 25008KT 220V280 9999 BKN006 OVC015 08/07 Q1022 TEMPO 6000 -RADZ

EXPIRED METARs :
  • 241020Z 25008KT 3500 -DZ SCT003 BKN007 OVC015 08/07 Q1022 TEMPO 9999 NSW
  • 240950Z 26007KT 220V290 5000 -DZ BKN007 OVC014 08/07 Q1022 TEMPO 9999 NSW SCT007
  • 240920Z 26007KT 9999 7000N -DZ SCT009 OVC014 08/06 Q1022 NOSIG
  • 240850Z 26009KT 9999 7000N SCT009 BKN014 08/06 Q1022 NOSIG
  • 240820Z 25007KT 9999 FEW009 BKN013 08/06 Q1022 NOSIG

TAF TAF EGNS
Valid from the 24 at 09:00 until the 24 at 18:00 UTC


240800Z 2409/2418 26008KT 9999 SCT010 BKN020
TEMPO 2409/2418 BKN010
PROB30
TEMPO 2409/2418 5000 -RADZ BKN006



MET'MAP, your aeronautical weather chart ! - Copyright ORBIFLY December 2007 - Disclaimer

ORBIFLY MET'MAP TEAM :

Programming & Development : Alexandra Zaïnal
Concept & original design : Baudouin d'Aumeries
Assistance for programming : Marc-Olivier Méhu
Technical & hardware support : Manuel Goepfert

Contact : metmap@orbifly.com




SOURCES & CREDITS :

   NOAA